Time;durP1;ratioP1;P1;durP2;ratioP2;P2;SDS_P1;SDS_P2;PMS_P1;PMS_P2;Temp;Humidity;BMP_temperature;BMP_pressure;BME280_temperature;BME280_humidity;BME280_pressure;Samples;Min_cycle;Max_cycle;Signal;HPM_P1;HPM_P2
2024/04/04 00:00:45;;;;;;;2.07;0.80;;;9.00;99.90;;;;;;2019967;29;20620;-70
2024/04/04 00:01:47;;;;;;;1.50;0.85;;;9.00;99.90;;;;;;2020634;29;20225;-70
2024/04/04 00:02:50;;;;;;;2.15;0.55;;;9.00;99.90;;;;;;2023120;29;20801;-70
2024/04/04 00:03:51;;;;;;;1.55;0.90;;;9.00;99.90;;;;;;2030916;29;20288;-70
2024/04/04 00:05:02;;;;;;;1.90;0.77;;;9.00;99.90;;;;;;2026972;29;20288;-70
2024/04/04 00:06:04;;;;;;;1.63;0.70;;;9.00;99.90;;;;;;2029873;29;20297;-70
2024/04/04 00:07:05;;;;;;;1.92;0.85;;;9.00;99.90;;;;;;2038580;29;20598;-70
2024/04/04 00:08:06;;;;;;;4.47;0.90;;;9.00;99.90;;;;;;2030400;29;20280;-70
2024/04/04 00:09:07;;;;;;;2.22;0.80;;;9.00;99.90;;;;;;2031175;29;20189;-70
2024/04/04 00:10:08;;;;;;;2.10;1.00;;;9.00;99.90;;;;;;2030393;29;20729;-70
2024/04/04 00:11:17;;;;;;;3.70;0.80;;;9.00;99.90;;;;;;2031695;29;20182;-70
2024/04/04 00:12:19;;;;;;;0.75;0.70;;;9.00;99.90;;;;;;2022045;29;20185;-70
2024/04/04 00:13:20;;;;;;;0.98;0.63;;;9.00;99.90;;;;;;2016682;29;20260;-70
2024/04/04 00:14:21;;;;;;;2.37;1.03;;;9.10;99.90;;;;;;2027830;29;20263;-70
2024/04/04 00:15:22;;;;;;;2.57;0.60;;;9.10;99.90;;;;;;2032362;29;20314;-70
2024/04/04 00:16:22;;;;;;;1.53;0.70;;;9.10;99.90;;;;;;2031149;29;20225;-70
2024/04/04 00:17:24;;;;;;;2.37;0.90;;;9.10;99.90;;;;;;2024450;29;20233;-70
2024/04/04 00:18:24;;;;;;;2.15;0.80;;;9.10;99.90;;;;;;2030789;29;20220;-70
2024/04/04 00:19:25;;;;;;;1.77;1.03;;;9.10;99.90;;;;;;2030421;29;20723;-70
2024/04/04 00:20:26;;;;;;;1.80;0.73;;;9.10;99.90;;;;;;2033435;29;20259;-70
2024/04/04 00:21:26;;;;;;;1.70;1.00;;;9.00;99.90;;;;;;2034044;29;20228;-70
2024/04/04 00:22:27;;;;;;;5.30;0.67;;;9.10;99.90;;;;;;2033289;29;20275;-70
2024/04/04 00:23:28;;;;;;;2.57;0.70;;;9.00;99.90;;;;;;2032871;29;20232;-70
2024/04/04 00:24:29;;;;;;;1.20;0.70;;;9.00;99.90;;;;;;2022649;29;20230;-70
2024/04/04 00:25:29;;;;;;;1.63;0.60;;;9.00;99.90;;;;;;2015671;29;20297;-70
2024/04/04 00:26:30;;;;;;;3.10;0.80;;;9.00;99.90;;;;;;2026113;29;20977;-70
2024/04/04 00:27:30;;;;;;;1.30;0.67;;;9.00;99.90;;;;;;2030813;29;20285;-70
2024/04/04 00:28:34;;;;;;;2.20;0.80;;;9.10;99.90;;;;;;2032874;29;20224;-70
2024/04/04 00:29:35;;;;;;;0.90;0.55;;;9.10;99.90;;;;;;2032808;29;20229;-70
2024/04/04 00:30:36;;;;;;;2.13;1.03;;;9.10;99.90;;;;;;2022358;29;20229;-70
2024/04/04 00:31:37;;;;;;;2.23;0.80;;;9.20;99.90;;;;;;2023533;29;20225;-70
2024/04/04 00:32:37;;;;;;;1.83;0.83;;;9.30;99.90;;;;;;2038486;29;20232;-70
2024/04/04 00:33:38;;;;;;;1.23;0.60;;;9.40;99.90;;;;;;2038742;29;20311;-70
2024/04/04 00:34:39;;;;;;;2.23;1.00;;;9.40;99.90;;;;;;2027808;29;20249;-70
2024/04/04 00:35:39;;;;;;;1.13;0.80;;;9.30;99.90;;;;;;2027146;29;20224;-70
2024/04/04 00:36:40;;;;;;;1.63;0.90;;;9.30;99.90;;;;;;2026795;29;20236;-70
2024/04/04 00:37:44;;;;;;;1.77;0.77;;;9.30;99.90;;;;;;2027472;29;20248;-70
2024/04/04 00:38:45;;;;;;;1.55;0.80;;;9.30;99.90;;;;;;2022937;29;20312;-71
2024/04/04 00:39:46;;;;;;;1.87;0.80;;;9.30;99.90;;;;;;2026486;29;20224;-70
2024/04/04 00:40:46;;;;;;;1.00;0.80;;;9.20;99.90;;;;;;2025895;29;20221;-70
2024/04/04 00:41:47;;;;;;;1.73;0.90;;;9.20;99.90;;;;;;2025093;29;20253;-70
2024/04/04 00:42:51;;;;;;;0.83;0.60;;;9.20;99.90;;;;;;2021946;29;20249;-71
2024/04/04 00:43:51;;;;;;;1.70;0.77;;;9.20;99.90;;;;;;2027722;29;20225;-70
2024/04/04 00:44:52;;;;;;;3.50;0.90;;;9.30;99.90;;;;;;2029989;29;20221;-70
2024/04/04 00:45:53;;;;;;;1.43;0.63;;;9.30;99.90;;;;;;2027222;29;20229;-70
2024/04/04 00:46:54;;;;;;;0.82;0.65;;;9.30;99.90;;;;;;2025479;29;20236;-70
2024/04/04 00:47:56;;;;;;;0.90;0.67;;;9.30;99.90;;;;;;2023028;29;20612;-70
2024/04/04 00:48:59;;;;;;;3.20;1.27;;;9.30;99.90;;;;;;2038356;29;20224;-70
2024/04/04 00:50:01;;;;;;;2.47;0.90;;;9.30;99.90;;;;;;2037220;29;20310;-70
2024/04/04 00:51:02;;;;;;;1.50;0.88;;;9.40;99.90;;;;;;2020754;29;20280;-70
2024/04/04 00:52:09;;;;;;;1.73;0.80;;;9.30;99.90;;;;;;2019064;29;20662;-70
2024/04/04 00:53:10;;;;;;;0.98;0.70;;;9.30;99.90;;;;;;2038028;29;20184;-70
2024/04/04 00:54:11;;;;;;;3.58;0.70;;;9.30;99.90;;;;;;2029765;29;20205;-70
2024/04/04 00:55:12;;;;;;;2.27;0.70;;;9.30;99.90;;;;;;2016276;29;20198;-70
2024/04/04 00:56:13;;;;;;;1.43;0.73;;;9.30;99.90;;;;;;2015015;29;20198;-71
2024/04/04 00:57:14;;;;;;;2.50;0.90;;;9.30;99.90;;;;;;2022706;29;20468;-71
2024/04/04 00:58:19;;;;;;;1.20;0.60;;;9.40;99.90;;;;;;2039135;29;20184;-70
2024/04/04 00:59:20;;;;;;;3.72;0.90;;;9.40;99.90;;;;;;2030201;29;20181;-70
2024/04/04 01:00:24;;;;;;;1.83;0.90;;;9.40;99.90;;;;;;2023917;29;20242;-70
2024/04/04 01:01:24;;;;;;;2.78;0.75;;;9.50;99.90;;;;;;2033305;29;20719;-70
2024/04/04 01:02:25;;;;;;;5.77;0.97;;;9.50;99.90;;;;;;2032077;29;20220;-70
2024/04/04 01:03:26;;;;;;;1.77;0.80;;;9.40;99.90;;;;;;2022141;29;20292;-70
2024/04/04 01:04:27;;;;;;;1.55;0.70;;;9.40;99.90;;;;;;2017844;29;20228;-70
2024/04/04 01:05:27;;;;;;;3.57;1.03;;;9.40;99.90;;;;;;2023285;29;20319;-70
2024/04/04 01:06:32;;;;;;;2.57;0.97;;;9.30;99.90;;;;;;2024410;29;20232;-70
2024/04/04 01:07:34;;;;;;;2.60;0.95;;;9.40;99.90;;;;;;2022401;29;20226;-70
2024/04/04 01:08:35;;;;;;;0.85;0.60;;;9.40;99.90;;;;;;2031168;29;20256;-70
2024/04/04 01:09:35;;;;;;;1.77;0.70;;;9.40;99.90;;;;;;2027649;29;20221;-70
2024/04/04 01:10:36;;;;;;;1.43;0.60;;;9.50;99.90;;;;;;2021130;29;20232;-70
2024/04/04 01:11:37;;;;;;;1.80;0.80;;;9.50;99.90;;;;;;2037149;29;20225;-70
2024/04/04 01:12:40;;;;;;;3.13;1.03;;;9.50;99.90;;;;;;2031226;29;20230;-70
2024/04/04 01:13:41;;;;;;;2.17;0.80;;;9.50;99.90;;;;;;2022826;29;20228;-70
2024/04/04 01:14:41;;;;;;;1.40;0.80;;;9.50;99.90;;;;;;2029337;29;20312;-70
2024/04/04 01:15:42;;;;;;;2.57;0.70;;;9.40;99.90;;;;;;2030213;29;20275;-70
2024/04/04 01:16:43;;;;;;;2.10;0.90;;;9.40;99.90;;;;;;2037407;29;20600;-70
2024/04/04 01:17:44;;;;;;;1.47;0.70;;;9.40;99.90;;;;;;2037027;29;20586;-70
2024/04/04 01:18:45;;;;;;;3.20;0.80;;;9.50;99.90;;;;;;2025969;29;20236;-70
2024/04/04 01:19:46;;;;;;;1.15;0.73;;;9.40;99.90;;;;;;2030184;29;20223;-70
2024/04/04 01:20:47;;;;;;;3.93;0.80;;;9.40;99.90;;;;;;2038178;29;20231;-70
2024/04/04 01:21:48;;;;;;;2.30;0.70;;;9.40;99.90;;;;;;2022513;29;20218;-71
2024/04/04 01:22:49;;;;;;;1.23;0.70;;;9.40;99.90;;;;;;2019172;29;20357;-70
2024/04/04 01:23:49;;;;;;;2.15;0.75;;;9.40;99.90;;;;;;2025192;29;20260;-70
2024/04/04 01:24:50;;;;;;;2.70;0.80;;;9.40;99.90;;;;;;2033079;29;20227;-70
2024/04/04 01:25:51;;;;;;;1.93;0.70;;;9.40;99.90;;;;;;2015538;29;20281;-70
2024/04/04 01:26:51;;;;;;;1.77;0.60;;;9.50;99.90;;;;;;2007768;29;20286;-70
2024/04/04 01:27:53;;;;;;;2.63;1.17;;;9.50;99.90;;;;;;2014135;29;20249;-70
2024/04/04 01:28:54;;;;;;;1.67;0.93;;;9.50;99.90;;;;;;2015398;29;20226;-70
2024/04/04 01:29:55;;;;;;;0.93;0.67;;;9.50;99.90;;;;;;2018001;29;20312;-70
2024/04/04 01:30:57;;;;;;;2.70;0.70;;;9.50;99.90;;;;;;2025506;29;20312;-70
2024/04/04 01:31:58;;;;;;;2.80;0.70;;;9.50;99.90;;;;;;2037409;29;20278;-70
2024/04/04 01:32:58;;;;;;;1.23;0.67;;;9.50;99.90;;;;;;2036928;29;20220;-70
2024/04/04 01:33:59;;;;;;;2.30;0.60;;;9.40;99.90;;;;;;2024524;29;20236;-70
2024/04/04 01:34:59;;;;;;;1.40;0.60;;;9.50;99.90;;;;;;2023086;29;20226;-70
2024/04/04 01:36:00;;;;;;;1.37;0.80;;;9.40;99.90;;;;;;2021918;29;20226;-70
2024/04/04 01:37:01;;;;;;;0.90;0.70;;;9.40;99.90;;;;;;2017138;29;20718;-70
2024/04/04 01:38:02;;;;;;;3.17;0.70;;;9.50;99.90;;;;;;2017316;29;20191;-70
2024/04/04 01:39:03;;;;;;;1.20;1.00;;;9.40;99.90;;;;;;2021562;29;20334;-71
2024/04/04 01:40:08;;;;;;;2.03;0.80;;;9.50;99.90;;;;;;2036491;29;20291;-70
2024/04/04 01:41:09;;;;;;;0.50;0.43;;;9.50;99.90;;;;;;2036036;29;20924;-70
2024/04/04 01:42:09;;;;;;;1.80;0.60;;;9.60;99.90;;;;;;2021603;29;20186;-70
2024/04/04 01:43:10;;;;;;;2.03;0.70;;;9.50;99.90;;;;;;2029111;29;20697;-70
2024/04/04 01:44:11;;;;;;;1.50;1.00;;;9.60;99.90;;;;;;2030496;29;20188;-70
2024/04/04 01:45:11;;;;;;;2.73;0.80;;;9.50;99.90;;;;;;2029669;29;20679;-70
2024/04/04 01:46:12;;;;;;;2.63;0.80;;;9.50;99.90;;;;;;2022034;29;20208;-70
2024/04/04 01:47:13;;;;;;;1.57;0.70;;;9.50;99.90;;;;;;2014053;29;20193;-70
2024/04/04 01:48:13;;;;;;;2.87;0.90;;;9.50;99.90;;;;;;2030956;29;20277;-70
2024/04/04 01:49:15;;;;;;;2.77;0.90;;;9.40;99.90;;;;;;2013569;29;20198;-70
2024/04/04 01:50:16;;;;;;;1.27;0.70;;;9.40;99.90;;;;;;2015735;29;20186;-70
2024/04/04 01:51:17;;;;;;;2.17;0.90;;;9.40;99.90;;;;;;2032142;29;20185;-70
2024/04/04 01:52:17;;;;;;;0.80;0.73;;;9.50;99.90;;;;;;2021623;29;20185;-70
2024/04/04 01:53:18;;;;;;;3.07;0.77;;;9.50;99.90;;;;;;2037511;29;20212;-70
2024/04/04 01:54:20;;;;;;;2.93;0.67;;;9.50;99.90;;;;;;2028647;29;20217;-70
2024/04/04 01:55:20;;;;;;;1.40;0.80;;;9.50;99.90;;;;;;2030151;29;20193;-70
2024/04/04 01:56:21;;;;;;;1.67;0.77;;;9.50;99.90;;;;;;2030486;29;20784;-70
2024/04/04 01:57:22;;;;;;;1.40;0.67;;;9.50;99.90;;;;;;2029869;29;20243;-70
2024/04/04 01:58:22;;;;;;;1.90;0.90;;;9.40;99.90;;;;;;2029453;29;20319;-70
2024/04/04 01:59:23;;;;;;;2.03;1.07;;;9.40;99.90;;;;;;2023081;29;20759;-70
2024/04/04 02:00:24;;;;;;;1.63;0.70;;;9.40;99.90;;;;;;2021540;29;20288;-70
2024/04/04 02:01:25;;;;;;;1.77;0.85;;;9.40;99.90;;;;;;2025672;29;20366;-70
2024/04/04 02:02:25;;;;;;;2.47;0.77;;;9.50;99.90;;;;;;2030276;29;20328;-70
2024/04/04 02:03:26;;;;;;;2.77;0.80;;;9.40;99.90;;;;;;2037272;29;20231;-70
2024/04/04 02:04:27;;;;;;;2.93;0.90;;;9.30;99.90;;;;;;2022645;29;20658;-71
2024/04/04 02:05:27;;;;;;;2.73;0.80;;;9.30;99.90;;;;;;2021482;29;20233;-70
2024/04/04 02:06:28;;;;;;;0.80;0.60;;;9.30;99.90;;;;;;2021490;29;20301;-70
2024/04/04 02:07:29;;;;;;;1.17;0.63;;;9.30;99.90;;;;;;2012031;29;20258;-70
2024/04/04 02:08:29;;;;;;;0.90;0.70;;;9.30;99.90;;;;;;2021325;29;20229;-70
2024/04/04 02:09:30;;;;;;;2.47;0.90;;;9.40;99.90;;;;;;2021345;29;20819;-70
2024/04/04 02:10:31;;;;;;;1.80;0.77;;;9.30;99.90;;;;;;2020569;29;20225;-70
2024/04/04 02:11:31;;;;;;;1.37;0.80;;;9.30;99.90;;;;;;2022967;29;20693;-70
2024/04/04 02:12:32;;;;;;;0.63;0.60;;;9.30;99.90;;;;;;2018891;29;20228;-71
2024/04/04 02:13:33;;;;;;;2.53;0.70;;;9.30;99.90;;;;;;2026306;29;20228;-70
2024/04/04 02:14:33;;;;;;;1.20;0.73;;;9.30;99.90;;;;;;2028342;29;20225;-70
2024/04/04 02:15:41;;;;;;;1.03;0.80;;;9.40;99.90;;;;;;2037328;29;20573;-70
2024/04/04 02:16:42;;;;;;;1.02;0.70;;;9.40;99.90;;;;;;2028598;29;20713;-70
2024/04/04 02:17:43;;;;;;;0.70;0.60;;;9.30;99.90;;;;;;2013636;29;20218;-71
2024/04/04 02:18:44;;;;;;;3.57;0.70;;;9.40;99.90;;;;;;2021303;29;20225;-70
2024/04/04 02:19:44;;;;;;;2.47;0.80;;;9.40;99.90;;;;;;2021974;29;20229;-71
2024/04/04 02:20:47;;;;;;;3.57;0.80;;;9.40;99.90;;;;;;2021074;29;20217;-70
2024/04/04 02:21:48;;;;;;;2.78;0.90;;;9.30;99.90;;;;;;2022002;29;20213;-70
2024/04/04 02:22:49;;;;;;;1.37;0.60;;;9.30;99.90;;;;;;2021999;29;20236;-70
2024/04/04 02:23:50;;;;;;;1.42;0.70;;;9.30;99.90;;;;;;2021127;29;20233;-71
2024/04/04 02:24:50;;;;;;;1.37;0.93;;;9.40;99.90;;;;;;2020748;29;20313;-71
2024/04/04 02:25:51;;;;;;;1.07;0.60;;;9.40;99.90;;;;;;2036911;29;20216;-71
2024/04/04 02:26:52;;;;;;;2.47;0.80;;;9.30;99.90;;;;;;2037256;29;20259;-71
2024/04/04 02:27:53;;;;;;;2.13;0.70;;;9.30;99.90;;;;;;2020542;29;20301;-70
2024/04/04 02:28:54;;;;;;;2.07;0.87;;;9.40;99.90;;;;;;2022687;29;20225;-70
2024/04/04 02:29:54;;;;;;;0.70;0.60;;;9.40;99.90;;;;;;2026730;29;20248;-70
2024/04/04 02:30:55;;;;;;;1.27;0.60;;;9.40;99.90;;;;;;2027651;29;20225;-69
2024/04/04 02:31:56;;;;;;;1.73;0.80;;;9.40;99.90;;;;;;2029594;29;20240;-69
2024/04/04 02:32:57;;;;;;;1.63;0.80;;;9.40;99.90;;;;;;2029035;29;20220;-70
2024/04/04 02:33:57;;;;;;;0.60;0.60;;;9.40;99.90;;;;;;2036812;29;20796;-70
2024/04/04 02:34:58;;;;;;;4.40;0.80;;;9.40;99.90;;;;;;2036198;29;20283;-70
2024/04/04 02:35:59;;;;;;;2.25;0.82;;;9.40;99.90;;;;;;2028402;29;20233;-70
2024/04/04 02:37:00;;;;;;;2.60;0.83;;;9.30;99.90;;;;;;2021004;29;20234;-70
2024/04/04 02:38:01;;;;;;;3.47;1.00;;;9.30;99.90;;;;;;2027280;29;20261;-70
2024/04/04 02:39:02;;;;;;;0.82;0.70;;;9.20;99.90;;;;;;2034193;29;20220;-70
2024/04/04 02:40:03;;;;;;;1.45;0.70;;;9.20;99.90;;;;;;2020583;29;20253;-70
2024/04/04 02:41:04;;;;;;;3.25;0.80;;;9.20;99.90;;;;;;2019423;29;20269;-69
2024/04/04 02:42:05;;;;;;;1.70;1.00;;;9.20;99.90;;;;;;2020889;29;20178;-69
2024/04/04 02:43:06;;;;;;;1.87;0.70;;;9.20;99.90;;;;;;2020446;29;20182;-69
2024/04/04 02:44:06;;;;;;;1.03;0.60;;;9.20;99.90;;;;;;2028450;29;20194;-70
2024/04/04 02:45:07;;;;;;;4.93;1.37;;;9.20;99.90;;;;;;2029347;29;20260;-70
2024/04/04 02:46:08;;;;;;;2.20;0.70;;;9.20;99.90;;;;;;2021729;29;20936;-70
2024/04/04 02:47:09;;;;;;;1.40;0.90;;;9.20;99.90;;;;;;2021468;29;20759;-70
2024/04/04 02:48:09;;;;;;;2.73;1.00;;;9.10;99.90;;;;;;2037240;29;20729;-70
2024/04/04 02:49:10;;;;;;;2.30;0.80;;;9.10;99.90;;;;;;2028469;29;20200;-70
2024/04/04 02:50:11;;;;;;;2.10;0.73;;;9.20;99.90;;;;;;2028453;29;20193;-70
2024/04/04 02:51:12;;;;;;;2.23;0.70;;;9.10;99.90;;;;;;2029043;29;20189;-70
2024/04/04 02:52:12;;;;;;;3.80;0.90;;;9.20;99.90;;;;;;2030081;29;20440;-70
2024/04/04 02:53:13;;;;;;;2.13;0.80;;;9.10;99.90;;;;;;2036924;29;20645;-69
2024/04/04 02:54:14;;;;;;;2.20;0.90;;;9.10;99.90;;;;;;2030017;29;20197;-70
2024/04/04 02:55:15;;;;;;;4.33;1.30;;;9.10;99.90;;;;;;2021643;29;20565;-70
2024/04/04 02:56:15;;;;;;;0.97;0.70;;;9.10;99.90;;;;;;2020353;29;20213;-70
2024/04/04 02:57:16;;;;;;;1.83;0.70;;;9.20;99.90;;;;;;2020777;29;20273;-70
2024/04/04 02:58:16;;;;;;;2.97;0.80;;;9.20;99.90;;;;;;2021611;29;20241;-70
2024/04/04 02:59:17;;;;;;;1.50;0.93;;;9.30;99.90;;;;;;2028391;29;20614;-70
2024/04/04 03:00:18;;;;;;;2.17;0.73;;;9.30;99.90;;;;;;2036197;29;20202;-70
2024/04/04 03:01:19;;;;;;;2.13;0.83;;;9.30;99.90;;;;;;2036818;29;20260;-70
2024/04/04 03:02:19;;;;;;;3.07;1.00;;;9.30;99.90;;;;;;2028656;29;20225;-70
2024/04/04 03:03:20;;;;;;;3.20;1.07;;;9.30;99.90;;;;;;2028844;29;20199;-70
2024/04/04 03:04:24;;;;;;;3.95;0.80;;;9.20;99.90;;;;;;2025151;29;20688;-70
2024/04/04 03:05:25;;;;;;;4.53;1.10;;;9.20;99.90;;;;;;2025072;29;20233;-70
2024/04/04 03:06:26;;;;;;;2.13;0.85;;;9.10;99.90;;;;;;2028914;29;20228;-70
2024/04/04 03:07:27;;;;;;;3.47;1.07;;;9.20;99.90;;;;;;2021017;29;20221;-70
2024/04/04 03:08:27;;;;;;;3.73;1.27;;;9.20;99.90;;;;;;2021262;29;20220;-70
2024/04/04 03:09:28;;;;;;;2.37;1.00;;;9.20;99.90;;;;;;2014128;29;20222;-70
2024/04/04 03:10:29;;;;;;;2.40;0.97;;;9.20;99.90;;;;;;2012818;29;20229;-70
2024/04/04 03:11:30;;;;;;;1.10;0.90;;;9.20;99.90;;;;;;2021051;29;20229;-70
2024/04/04 03:12:31;;;;;;;2.38;0.85;;;9.10;99.90;;;;;;2021234;29;20233;-70
2024/04/04 03:13:31;;;;;;;1.80;0.80;;;9.10;99.90;;;;;;2017463;29;20619;-70
2024/04/04 03:14:32;;;;;;;3.57;1.10;;;9.20;99.90;;;;;;2021470;29;20224;-70
2024/04/04 03:15:33;;;;;;;2.70;1.00;;;9.10;99.90;;;;;;2021364;29;20228;-70
2024/04/04 03:16:34;;;;;;;2.97;1.07;;;9.10;99.90;;;;;;2030570;29;20309;-70
2024/04/04 03:17:34;;;;;;;3.17;1.27;;;9.20;99.90;;;;;;2037099;29;20239;-70
2024/04/04 03:18:35;;;;;;;4.20;1.10;;;9.20;99.90;;;;;;2025015;29;20312;-70
2024/04/04 03:19:36;;;;;;;4.73;1.37;;;9.10;99.90;;;;;;2022671;29;20304;-70
2024/04/04 03:20:36;;;;;;;4.57;1.00;;;9.10;99.90;;;;;;2016778;29;20270;-70
2024/04/04 03:21:37;;;;;;;2.97;1.00;;;9.10;99.90;;;;;;2010894;29;20885;-70
2024/04/04 03:22:38;;;;;;;4.35;1.23;;;9.20;99.90;;;;;;2018493;29;20221;-70
2024/04/04 03:23:39;;;;;;;4.00;1.50;;;9.10;99.90;;;;;;2030609;29;20319;-70
2024/04/04 03:24:39;;;;;;;5.63;1.43;;;9.20;99.90;;;;;;2026621;29;20233;-70
2024/04/04 03:25:40;;;;;;;4.87;1.37;;;9.20;99.90;;;;;;2024091;29;20268;-70
2024/04/04 03:26:41;;;;;;;5.30;1.30;;;9.20;99.90;;;;;;2030230;29;20734;-70
2024/04/04 03:27:41;;;;;;;3.13;1.60;;;9.20;99.90;;;;;;2022007;29;20233;-70
2024/04/04 03:28:42;;;;;;;3.63;0.93;;;9.20;99.90;;;;;;2015473;29;20222;-70
2024/04/04 03:29:43;;;;;;;7.30;1.60;;;9.10;99.90;;;;;;2021160;29;20228;-70
2024/04/04 03:30:43;;;;;;;3.30;1.47;;;9.10;99.90;;;;;;2031551;29;20228;-70
2024/04/04 03:31:44;;;;;;;2.93;1.20;;;9.10;99.90;;;;;;2031533;29;20236;-70
2024/04/04 03:32:45;;;;;;;4.13;1.33;;;9.10;99.90;;;;;;2030752;29;20229;-69
2024/04/04 03:33:45;;;;;;;7.30;1.73;;;9.10;99.90;;;;;;2030965;29;20228;-69
2024/04/04 03:34:47;;;;;;;5.53;1.33;;;9.10;99.90;;;;;;2029196;29;20237;-69
2024/04/04 03:35:48;;;;;;;6.97;1.77;;;9.10;99.90;;;;;;2029561;29;20653;-69
2024/04/04 03:36:49;;;;;;;4.47;1.50;;;9.10;99.90;;;;;;2027869;29;20225;-69
2024/04/04 03:37:50;;;;;;;5.13;1.40;;;9.10;99.90;;;;;;2033520;29;20782;-70
2024/04/04 03:38:51;;;;;;;5.90;1.40;;;9.10;99.90;;;;;;2029830;29;20217;-69
2024/04/04 03:39:55;;;;;;;5.97;1.47;;;9.10;99.90;;;;;;2028442;29;20307;-69
2024/04/04 03:40:55;;;;;;;5.88;1.80;;;9.10;99.90;;;;;;2020785;29;20620;-70
2024/04/04 03:41:56;;;;;;;6.13;1.83;;;9.00;99.90;;;;;;2014675;29;20222;-69
2024/04/04 03:42:57;;;;;;;5.50;2.00;;;9.00;99.90;;;;;;2022009;29;20304;-69
2024/04/04 03:43:57;;;;;;;6.33;1.97;;;9.00;99.90;;;;;;2023228;29;20225;-69
2024/04/04 03:44:58;;;;;;;4.67;1.57;;;9.00;99.90;;;;;;2037482;29;20331;-69
2024/04/04 03:46:05;;;;;;;6.73;1.77;;;9.00;99.90;;;;;;2029770;29;20228;-70
2024/04/04 03:47:06;;;;;;;6.10;1.75;;;9.00;99.90;;;;;;2015187;29;20688;-70
2024/04/04 03:48:07;;;;;;;4.53;1.77;;;9.00;99.90;;;;;;2030232;29;20189;-69
2024/04/04 03:49:08;;;;;;;6.83;1.73;;;9.00;99.90;;;;;;2036908;29;20192;-70
2024/04/04 03:50:09;;;;;;;7.90;1.90;;;9.00;99.90;;;;;;2021639;29;20225;-70
2024/04/04 03:51:09;;;;;;;3.97;1.50;;;9.00;99.90;;;;;;2023693;29;20190;-69
2024/04/04 03:52:10;;;;;;;4.37;1.40;;;9.00;99.90;;;;;;2036254;29;20422;-69
2024/04/04 03:53:12;;;;;;;5.50;1.60;;;9.00;99.90;;;;;;2029846;29;20251;-69
2024/04/04 03:54:13;;;;;;;10.60;2.50;;;9.00;99.90;;;;;;2022139;29;20205;-69
2024/04/04 03:55:14;;;;;;;5.10;1.50;;;9.00;99.90;;;;;;2029847;29;20688;-69
2024/04/04 03:56:14;;;;;;;6.33;1.67;;;9.00;99.90;;;;;;2030595;29;20216;-69
2024/04/04 03:57:15;;;;;;;5.87;2.10;;;9.00;99.90;;;;;;2032242;29;20276;-69
2024/04/04 03:58:18;;;;;;;5.93;2.47;;;9.10;99.90;;;;;;2023739;29;20189;-70
2024/04/04 03:59:18;;;;;;;6.20;1.63;;;9.10;99.90;;;;;;2021784;29;20193;-70
2024/04/04 04:00:19;;;;;;;6.53;2.07;;;9.00;99.90;;;;;;2023357;29;20269;-70
2024/04/04 04:01:20;;;;;;;4.00;1.70;;;9.00;99.90;;;;;;2022335;29;20638;-70
2024/04/04 04:02:21;;;;;;;6.43;1.30;;;9.10;99.90;;;;;;2022475;29;20225;-69
2024/04/04 04:03:22;;;;;;;7.50;2.08;;;9.10;99.90;;;;;;2030287;29;20237;-69
2024/04/04 04:04:23;;;;;;;7.70;1.50;;;9.10;99.90;;;;;;2039003;29;20663;-69
2024/04/04 04:05:24;;;;;;;5.43;1.67;;;9.00;99.90;;;;;;2022292;29;20316;-69
2024/04/04 04:06:25;;;;;;;6.75;2.13;;;9.10;99.90;;;;;;2022190;29;20344;-69
2024/04/04 04:07:26;;;;;;;5.27;1.40;;;9.00;99.90;;;;;;2031034;29;20577;-70
2024/04/04 04:08:27;;;;;;;5.27;1.40;;;9.00;99.90;;;;;;2022854;29;20218;-69
2024/04/04 04:09:27;;;;;;;3.53;1.35;;;8.90;99.90;;;;;;2015596;29;20230;-70
2024/04/04 04:10:30;;;;;;;6.40;1.87;;;9.00;99.90;;;;;;2023016;29;20236;-70
2024/04/04 04:11:31;;;;;;;7.32;2.38;;;8.90;99.90;;;;;;2020236;29;20262;-69
2024/04/04 04:12:32;;;;;;;7.73;1.67;;;8.90;99.90;;;;;;2023505;29;20222;-70
2024/04/04 04:13:32;;;;;;;7.40;1.50;;;8.90;99.90;;;;;;2030459;29;20220;-70
2024/04/04 04:14:34;;;;;;;6.23;1.90;;;8.80;99.90;;;;;;2023354;29;20217;-70
2024/04/04 04:15:35;;;;;;;9.13;1.88;;;8.90;99.90;;;;;;2015434;29;20237;-70
2024/04/04 04:16:36;;;;;;;7.18;1.63;;;8.90;99.90;;;;;;2022292;29;20234;-70
2024/04/04 04:17:36;;;;;;;5.80;2.33;;;8.90;99.90;;;;;;2026345;29;20321;-70
2024/04/04 04:18:37;;;;;;;7.70;1.70;;;8.90;99.90;;;;;;2032426;29;20621;-71
2024/04/04 04:19:38;;;;;;;6.67;1.20;;;8.90;99.90;;;;;;2037500;29;20248;-70
2024/04/04 04:21:58;;;;;;;9.88;1.80;;;8.90;99.90;;;;;;2029552;29;20233;-70
2024/04/04 04:22:58;;;;;;;10.30;2.23;;;8.90;99.90;;;;;;2026996;29;20271;-70
2024/04/04 04:24:00;;;;;;;11.10;1.97;;;8.90;99.90;;;;;;2026196;29;20680;-71
2024/04/04 04:25:01;;;;;;;9.07;1.90;;;8.90;99.90;;;;;;2029527;29;20220;-70
2024/04/04 04:26:01;;;;;;;5.83;1.70;;;9.00;99.90;;;;;;2030673;29;20216;-70
2024/04/04 04:27:02;;;;;;;6.07;2.07;;;9.00;99.90;;;;;;2025847;29;20267;-70
2024/04/04 04:28:03;;;;;;;4.73;1.40;;;9.00;99.90;;;;;;2024298;29;20654;-70
2024/04/04 04:29:04;;;;;;;3.08;1.30;;;9.10;99.90;;;;;;2018753;29;20198;-70
2024/04/04 04:30:05;;;;;;;5.20;1.40;;;9.10;99.90;;;;;;2025820;29;20186;-70
2024/04/04 04:31:28;;;;;;;5.63;1.60;;;9.10;99.90;;;;;;2027292;29;20678;-71
2024/04/04 04:32:28;;;;;;;4.07;1.60;;;9.00;99.90;;;;;;2037946;29;20228;-70
2024/04/04 04:33:29;;;;;;;5.73;1.20;;;9.00;99.90;;;;;;2031348;29;20592;-71
2024/04/04 04:34:30;;;;;;;7.20;1.67;;;9.00;99.90;;;;;;2021795;29;20221;-70
2024/04/04 04:35:30;;;;;;;6.37;1.70;;;9.00;99.90;;;;;;2030010;29;20300;-71
2024/04/04 04:36:35;;;;;;;8.73;1.90;;;9.00;99.90;;;;;;2036222;29;20311;-70
2024/04/04 04:37:36;;;;;;;5.35;1.80;;;9.00;99.90;;;;;;2030571;29;20300;-71
2024/04/04 04:38:37;;;;;;;5.60;1.67;;;9.00;99.90;;;;;;2024120;29;20233;-70
2024/04/04 04:39:37;;;;;;;7.83;1.40;;;9.00;99.90;;;;;;2031090;29;20252;-70
2024/04/04 04:40:42;;;;;;;9.13;2.10;;;9.10;99.90;;;;;;2029965;29;20229;-70
2024/04/04 04:41:42;;;;;;;4.85;1.27;;;9.10;99.90;;;;;;2019409;29;20304;-71
2024/04/04 04:42:43;;;;;;;4.87;1.60;;;9.10;99.90;;;;;;2025936;29;20271;-70
2024/04/04 04:43:46;;;;;;;6.10;1.73;;;9.10;99.90;;;;;;2022187;29;20256;-70
2024/04/04 04:44:46;;;;;;;6.35;1.92;;;9.10;99.90;;;;;;2014942;29;20222;-70
2024/04/04 04:45:47;;;;;;;8.07;1.70;;;9.10;99.90;;;;;;2015214;29;20230;-70
2024/04/04 04:46:48;;;;;;;6.53;1.77;;;9.10;99.90;;;;;;2019192;29;20237;-70
2024/04/04 04:47:48;;;;;;;6.93;1.97;;;9.10;99.90;;;;;;2036050;29;20886;-70
2024/04/04 04:48:49;;;;;;;6.00;1.73;;;9.10;99.90;;;;;;2036371;29;20236;-70
2024/04/04 04:49:52;;;;;;;8.07;1.63;;;9.20;99.90;;;;;;2022704;29;20222;-70
2024/04/04 04:50:53;;;;;;;4.93;1.75;;;9.20;99.90;;;;;;2017783;29;20226;-70
2024/04/04 04:51:54;;;;;;;6.33;1.30;;;9.20;99.90;;;;;;2023497;29;20233;-71
2024/04/04 04:52:54;;;;;;;4.33;1.60;;;9.10;99.90;;;;;;2022376;29;20600;-70
2024/04/04 04:53:56;;;;;;;7.53;2.00;;;9.20;99.90;;;;;;2029647;29;20287;-70
2024/04/04 04:54:57;;;;;;;8.00;2.03;;;9.10;99.90;;;;;;2036601;29;20224;-70
2024/04/04 04:55:57;;;;;;;6.03;1.73;;;9.20;99.90;;;;;;2028541;29;20391;-71
2024/04/04 04:56:59;;;;;;;10.50;2.00;;;9.20;99.90;;;;;;2019600;29;20229;-70
2024/04/04 04:58:00;;;;;;;8.25;2.08;;;9.10;99.90;;;;;;2021345;29;20645;-70
2024/04/04 04:59:01;;;;;;;6.40;1.87;;;9.20;99.90;;;;;;2028920;29;20252;-70
2024/04/04 05:00:02;;;;;;;7.33;1.80;;;9.20;99.90;;;;;;2030211;29;20713;-70
2024/04/04 05:01:03;;;;;;;7.50;1.80;;;9.20;99.90;;;;;;2030063;29;20184;-70
2024/04/04 05:02:04;;;;;;;8.10;1.60;;;9.20;99.90;;;;;;2025072;29;20178;-70
2024/04/04 05:03:05;;;;;;;8.60;1.50;;;9.20;99.90;;;;;;2032568;29;20184;-70
2024/04/04 05:04:05;;;;;;;4.25;1.48;;;9.20;99.90;;;;;;2029770;29;20219;-70
2024/04/04 05:05:16;;;;;;;6.77;2.00;;;9.20;99.90;;;;;;2022958;29;20578;-70
2024/04/04 05:06:16;;;;;;;6.75;1.65;;;9.10;99.90;;;;;;2025455;29;20228;-70
2024/04/04 05:07:17;;;;;;;7.47;1.80;;;9.10;99.90;;;;;;2031553;29;20189;-70
2024/04/04 05:08:19;;;;;;;6.93;1.50;;;9.10;99.90;;;;;;2033463;29;20186;-70
2024/04/04 05:09:20;;;;;;;6.57;1.67;;;9.10;99.90;;;;;;2022518;29;20240;-70
2024/04/04 05:10:21;;;;;;;4.10;1.70;;;9.10;99.90;;;;;;2021471;29;20229;-70
2024/04/04 05:11:21;;;;;;;12.27;2.87;;;9.20;99.90;;;;;;2024833;29;20237;-70
2024/04/04 05:12:22;;;;;;;7.67;2.33;;;9.20;99.90;;;;;;2032487;29;20236;-70
2024/04/04 05:13:23;;;;;;;8.60;1.93;;;9.20;99.90;;;;;;2029503;29;20236;-70
2024/04/04 05:14:23;;;;;;;5.70;1.70;;;9.20;99.90;;;;;;2023837;29;20241;-69
2024/04/04 05:15:24;;;;;;;6.43;1.93;;;9.10;99.90;;;;;;2023708;29;20734;-70
2024/04/04 05:16:25;;;;;;;8.50;2.20;;;9.10;99.90;;;;;;2029958;29;20236;-69
2024/04/04 05:17:26;;;;;;;6.10;1.90;;;9.20;99.90;;;;;;2029550;29;20252;-69
2024/04/04 05:18:27;;;;;;;5.70;1.42;;;9.10;99.90;;;;;;2014749;29;20287;-69
2024/04/04 05:19:27;;;;;;;7.88;1.77;;;9.10;99.90;;;;;;2021085;29;20238;-69
2024/04/04 05:20:28;;;;;;;3.43;1.60;;;9.10;99.90;;;;;;2031384;29;20310;-70
2024/04/04 05:21:30;;;;;;;8.38;2.58;;;9.10;99.90;;;;;;2021616;29;20332;-70
2024/04/04 05:22:30;;;;;;;4.87;1.60;;;9.10;99.90;;;;;;2017013;29;20820;-70
2024/04/04 05:23:34;;;;;;;8.90;1.93;;;9.20;99.90;;;;;;2029702;29;20359;-70
2024/04/04 05:24:35;;;;;;;9.25;2.33;;;9.20;99.90;;;;;;2028813;29;20228;-70